Fircrest, Washington
Current Conditions -  °F | °C
As of 9:53 AM on Monday 22 Dec 2014 (Local Time) from KTIW Reporting Station
Clear Clear  
Wind Chill: 44°   Ceiling: Unl
Heat Index: 46°   Visibility: 10mi
Dew Point: 43°   Wind: 5mph
Humidity: 89%   Direction: 190°S
Pressure: 30.36"   Gusts: NA
Location:  47.2285°N, 122.536°W
Report Text: KTIW 221753Z 19004KT 10SM CLR 08/06 A3036 RMK AO2 SLP282 T00780061 10089 20067 53022
Loading
Personal Weather Stations






























Interactive Weather Map New forecast layout! Learn more

10-Day Weather Forecast

Advertisements
Track Severe Weather on mobile